Main page
METAR-TAF:

METAR-TAF

Airports :

N'Djamena International Airport

N'Djamena, Chad

latitude: 12-08N, longitude: 015-02E, elevation: 295 m

Current weather observation

The report was made 1 hour and 27 minutes ago, at 03:00 UTC
Wind 5 kt from the South
Temperature 26°C
Humidity 79%
Pressure 1010 hPa
Visibility: 8000 m

METAR: FTTJ 260300Z 17005KT 8000 NSC 26/22 Q1010 NOSIG

Time: 05:27 (04:27 UTC)

Forecast

The report was made 5 hours and 2 minutes ago, at 23:25 UTC
Forecast valid from 26 at 00 UTC to 27 at 06 UTC
Wind 6 kt from the Southwest
Visibility 10 km or more
no clouds below 1500 m and no cumulonimbus

TAF: FTTJ 252325Z 2600/2706 22006KT CAVOK

Weather observations and forecasts of more than 4000 airports (METAR and TAF reports).

The available stations are represented by yellow and red dots on the map.

Hover mouse over dot to see the name of the station.

Then click to see weather observations and forecasts.

To change the map : click on the green buttons with a black cross to zoom in, on the green button with a dash to zoom out, or on the green arrows for adjacent maps.


METAR-TAF: